sensor_id;sensor_type;location;lat;lon;timestamp;P1;durP1;ratioP1;P2;durP2;ratioP2
20004;SDS011;69160;45.498;-73.582;2023-08-30T00:00:58;5.47;;;4.37;;
20004;SDS011;69160;45.498;-73.582;2023-08-30T00:03:24;5.57;;;4.60;;
20004;SDS011;69160;45.498;-73.582;2023-08-30T00:05:52;4.53;;;4.13;;
20004;SDS011;69160;45.498;-73.582;2023-08-30T00:08:18;5.60;;;4.70;;
20004;SDS011;69160;45.498;-73.582;2023-08-30T00:10:45;4.50;;;4.10;;
20004;SDS011;69160;45.498;-73.582;2023-08-30T00:13:12;5.50;;;4.90;;
20004;SDS011;69160;45.498;-73.582;2023-08-30T00:15:38;6.10;;;4.67;;
20004;SDS011;69160;45.498;-73.582;2023-08-30T00:18:04;7.83;;;5.97;;
20004;SDS011;69160;45.498;-73.582;2023-08-30T00:20:31;6.13;;;5.20;;
20004;SDS011;69160;45.498;-73.582;2023-08-30T00:22:57;5.83;;;4.93;;
20004;SDS011;69160;45.498;-73.582;2023-08-30T00:25:23;8.13;;;5.80;;
20004;SDS011;69160;45.498;-73.582;2023-08-30T00:27:49;7.27;;;5.27;;
20004;SDS011;69160;45.498;-73.582;2023-08-30T00:30:15;5.17;;;4.67;;
20004;SDS011;69160;45.498;-73.582;2023-08-30T00:32:42;6.97;;;4.80;;
20004;SDS011;69160;45.498;-73.582;2023-08-30T00:35:09;5.13;;;4.63;;
20004;SDS011;69160;45.498;-73.582;2023-08-30T00:37:37;5.80;;;4.40;;
20004;SDS011;69160;45.498;-73.582;2023-08-30T00:40:03;5.03;;;4.53;;
20004;SDS011;69160;45.498;-73.582;2023-08-30T00:42:31;4.90;;;4.40;;
20004;SDS011;69160;45.498;-73.582;2023-08-30T00:44:57;4.73;;;4.20;;
20004;SDS011;69160;45.498;-73.582;2023-08-30T00:47:23;5.00;;;4.47;;
20004;SDS011;69160;45.498;-73.582;2023-08-30T00:49:50;9.77;;;4.67;;
20004;SDS011;69160;45.498;-73.582;2023-08-30T00:52:16;24.17;;;5.30;;
20004;SDS011;69160;45.498;-73.582;2023-08-30T00:54:42;8.23;;;4.57;;
20004;SDS011;69160;45.498;-73.582;2023-08-30T00:57:08;6.40;;;4.10;;
20004;SDS011;69160;45.498;-73.582;2023-08-30T00:59:35;8.40;;;4.60;;
20004;SDS011;69160;45.498;-73.582;2023-08-30T01:02:02;4.90;;;4.10;;
20004;SDS011;69160;45.498;-73.582;2023-08-30T01:04:30;8.03;;;4.27;;
20004;SDS011;69160;45.498;-73.582;2023-08-30T01:06:56;6.40;;;3.80;;
20004;SDS011;69160;45.498;-73.582;2023-08-30T01:09:23;5.80;;;4.10;;
20004;SDS011;69160;45.498;-73.582;2023-08-30T01:14:59;5.47;;;4.20;;
20004;SDS011;69160;45.498;-73.582;2023-08-30T01:17:56;5.40;;;4.80;;
20004;SDS011;69160;45.498;-73.582;2023-08-30T01:20:22;4.57;;;4.10;;
20004;SDS011;69160;45.498;-73.582;2023-08-30T01:23:01;5.30;;;4.10;;
20004;SDS011;69160;45.498;-73.582;2023-08-30T01:25:33;4.73;;;4.23;;
20004;SDS011;69160;45.498;-73.582;2023-08-30T01:28:15;5.07;;;4.20;;
20004;SDS011;69160;45.498;-73.582;2023-08-30T01:30:45;4.37;;;3.97;;
20004;SDS011;69160;45.498;-73.582;2023-08-30T01:33:13;4.77;;;4.27;;
20004;SDS011;69160;45.498;-73.582;2023-08-30T01:35:44;4.30;;;3.90;;
20004;SDS011;69160;45.498;-73.582;2023-08-30T01:38:11;5.57;;;4.10;;
20004;SDS011;69160;45.498;-73.582;2023-08-30T01:40:40;4.77;;;3.90;;
20004;SDS011;69160;45.498;-73.582;2023-08-30T01:43:08;5.90;;;3.80;;
20004;SDS011;69160;45.498;-73.582;2023-08-30T01:45:40;3.33;;;3.03;;
20004;SDS011;69160;45.498;-73.582;2023-08-30T01:48:08;4.73;;;3.80;;
20004;SDS011;69160;45.498;-73.582;2023-08-30T01:50:45;3.87;;;3.50;;
20004;SDS011;69160;45.498;-73.582;2023-08-30T01:53:12;4.00;;;3.57;;
20004;SDS011;69160;45.498;-73.582;2023-08-30T01:55:39;6.13;;;4.00;;
20004;SDS011;69160;45.498;-73.582;2023-08-30T01:58:06;3.93;;;3.53;;
20004;SDS011;69160;45.498;-73.582;2023-08-30T02:00:34;3.70;;;3.27;;
20004;SDS011;69160;45.498;-73.582;2023-08-30T02:03:11;4.03;;;3.60;;
20004;SDS011;69160;45.498;-73.582;2023-08-30T02:05:43;4.73;;;3.63;;
20004;SDS011;69160;45.498;-73.582;2023-08-30T02:08:14;3.80;;;3.27;;
20004;SDS011;69160;45.498;-73.582;2023-08-30T02:10:45;3.73;;;3.43;;
20004;SDS011;69160;45.498;-73.582;2023-08-30T02:13:19;4.00;;;3.60;;
20004;SDS011;69160;45.498;-73.582;2023-08-30T02:15:50;4.07;;;3.57;;
20004;SDS011;69160;45.498;-73.582;2023-08-30T02:18:17;4.47;;;3.47;;
20004;SDS011;69160;45.498;-73.582;2023-08-30T02:20:45;4.90;;;3.87;;
20004;SDS011;69160;45.498;-73.582;2023-08-30T02:23:12;4.43;;;4.00;;
20004;SDS011;69160;45.498;-73.582;2023-08-30T02:25:38;4.03;;;3.13;;
20004;SDS011;69160;45.498;-73.582;2023-08-30T02:28:04;4.67;;;4.07;;
20004;SDS011;69160;45.498;-73.582;2023-08-30T02:30:30;3.43;;;3.10;;
20004;SDS011;69160;45.498;-73.582;2023-08-30T02:32:57;4.30;;;3.63;;
20004;SDS011;69160;45.498;-73.582;2023-08-30T02:35:23;9.70;;;3.17;;
20004;SDS011;69160;45.498;-73.582;2023-08-30T02:37:49;3.93;;;3.17;;
20004;SDS011;69160;45.498;-73.582;2023-08-30T02:40:16;4.20;;;3.03;;
20004;SDS011;69160;45.498;-73.582;2023-08-30T02:42:42;3.53;;;3.17;;
20004;SDS011;69160;45.498;-73.582;2023-08-30T02:45:08;3.83;;;3.23;;
20004;SDS011;69160;45.498;-73.582;2023-08-30T02:47:35;3.87;;;3.10;;
20004;SDS011;69160;45.498;-73.582;2023-08-30T02:50:01;3.77;;;3.13;;
20004;SDS011;69160;45.498;-73.582;2023-08-30T02:52:27;3.30;;;3.00;;
20004;SDS011;69160;45.498;-73.582;2023-08-30T02:54:54;3.20;;;2.90;;
20004;SDS011;69160;45.498;-73.582;2023-08-30T02:57:20;3.47;;;3.17;;
20004;SDS011;69160;45.498;-73.582;2023-08-30T02:59:46;3.33;;;2.80;;
20004;SDS011;69160;45.498;-73.582;2023-08-30T03:02:12;4.10;;;3.07;;
20004;SDS011;69160;45.498;-73.582;2023-08-30T03:04:38;3.30;;;3.00;;
20004;SDS011;69160;45.498;-73.582;2023-08-30T03:07:04;3.10;;;2.80;;
20004;SDS011;69160;45.498;-73.582;2023-08-30T03:09:31;3.63;;;3.20;;
20004;SDS011;69160;45.498;-73.582;2023-08-30T03:11:57;3.20;;;2.90;;
20004;SDS011;69160;45.498;-73.582;2023-08-30T03:14:23;3.70;;;2.53;;
20004;SDS011;69160;45.498;-73.582;2023-08-30T03:16:49;3.20;;;2.90;;
20004;SDS011;69160;45.498;-73.582;2023-08-30T03:19:15;3.63;;;3.00;;
20004;SDS011;69160;45.498;-73.582;2023-08-30T03:21:42;4.87;;;2.67;;
20004;SDS011;69160;45.498;-73.582;2023-08-30T03:24:09;3.40;;;2.90;;
20004;SDS011;69160;45.498;-73.582;2023-08-30T03:26:35;3.00;;;2.70;;
20004;SDS011;69160;45.498;-73.582;2023-08-30T03:29:01;2.90;;;2.60;;
20004;SDS011;69160;45.498;-73.582;2023-08-30T03:31:28;3.03;;;2.73;;
20004;SDS011;69160;45.498;-73.582;2023-08-30T03:33:54;3.57;;;2.80;;
20004;SDS011;69160;45.498;-73.582;2023-08-30T03:36:21;3.63;;;2.90;;
20004;SDS011;69160;45.498;-73.582;2023-08-30T03:38:47;3.33;;;2.80;;
20004;SDS011;69160;45.498;-73.582;2023-08-30T03:41:13;2.67;;;2.47;;
20004;SDS011;69160;45.498;-73.582;2023-08-30T03:43:39;2.80;;;2.33;;
20004;SDS011;69160;45.498;-73.582;2023-08-30T03:46:06;2.60;;;2.40;;
20004;SDS011;69160;45.498;-73.582;2023-08-30T03:48:32;4.03;;;2.67;;
20004;SDS011;69160;45.498;-73.582;2023-08-30T03:50:58;3.23;;;2.43;;
20004;SDS011;69160;45.498;-73.582;2023-08-30T03:53:25;3.70;;;3.03;;
20004;SDS011;69160;45.498;-73.582;2023-08-30T03:55:51;3.43;;;2.90;;
20004;SDS011;69160;45.498;-73.582;2023-08-30T03:58:18;3.20;;;2.67;;
20004;SDS011;69160;45.498;-73.582;2023-08-30T04:00:45;3.83;;;2.70;;
20004;SDS011;69160;45.498;-73.582;2023-08-30T04:03:20;2.60;;;2.40;;
20004;SDS011;69160;45.498;-73.582;2023-08-30T04:05:46;3.73;;;2.60;;
20004;SDS011;69160;45.498;-73.582;2023-08-30T04:08:12;2.93;;;2.67;;
20004;SDS011;69160;45.498;-73.582;2023-08-30T04:10:39;3.10;;;2.80;;
20004;SDS011;69160;45.498;-73.582;2023-08-30T04:13:08;2.87;;;2.57;;
20004;SDS011;69160;45.498;-73.582;2023-08-30T04:15:35;2.80;;;2.40;;
20004;SDS011;69160;45.498;-73.582;2023-08-30T04:18:02;4.00;;;3.00;;
20004;SDS011;69160;45.498;-73.582;2023-08-30T04:20:29;3.07;;;2.77;;
20004;SDS011;69160;45.498;-73.582;2023-08-30T04:22:57;13.80;;;2.70;;
20004;SDS011;69160;45.498;-73.582;2023-08-30T04:25:26;3.67;;;2.87;;
20004;SDS011;69160;45.498;-73.582;2023-08-30T04:27:55;3.03;;;2.70;;
20004;SDS011;69160;45.498;-73.582;2023-08-30T04:30:22;3.10;;;2.80;;
20004;SDS011;69160;45.498;-73.582;2023-08-30T04:32:48;5.00;;;2.80;;
20004;SDS011;69160;45.498;-73.582;2023-08-30T04:35:15;3.07;;;2.77;;
20004;SDS011;69160;45.498;-73.582;2023-08-30T04:37:41;4.13;;;2.83;;
20004;SDS011;69160;45.498;-73.582;2023-08-30T04:40:08;3.23;;;2.90;;
20004;SDS011;69160;45.498;-73.582;2023-08-30T04:42:34;2.80;;;2.60;;
20004;SDS011;69160;45.498;-73.582;2023-08-30T04:45:01;3.10;;;2.77;;
20004;SDS011;69160;45.498;-73.582;2023-08-30T04:47:31;2.90;;;2.70;;
20004;SDS011;69160;45.498;-73.582;2023-08-30T04:49:57;3.00;;;2.80;;
20004;SDS011;69160;45.498;-73.582;2023-08-30T04:52:23;3.37;;;2.87;;
20004;SDS011;69160;45.498;-73.582;2023-08-30T04:54:50;4.07;;;2.73;;
20004;SDS011;69160;45.498;-73.582;2023-08-30T04:57:16;2.63;;;2.43;;
20004;SDS011;69160;45.498;-73.582;2023-08-30T04:59:43;4.10;;;2.57;;
20004;SDS011;69160;45.498;-73.582;2023-08-30T05:02:10;3.10;;;2.80;;
20004;SDS011;69160;45.498;-73.582;2023-08-30T05:04:36;3.17;;;2.60;;
20004;SDS011;69160;45.498;-73.582;2023-08-30T05:07:03;2.73;;;2.53;;
20004;SDS011;69160;45.498;-73.582;2023-08-30T05:09:32;3.50;;;3.20;;
20004;SDS011;69160;45.498;-73.582;2023-08-30T05:12:00;3.20;;;2.90;;
20004;SDS011;69160;45.498;-73.582;2023-08-30T05:14:26;3.40;;;3.10;;
20004;SDS011;69160;45.498;-73.582;2023-08-30T05:16:53;2.70;;;2.50;;
20004;SDS011;69160;45.498;-73.582;2023-08-30T05:19:19;2.83;;;2.53;;
20004;SDS011;69160;45.498;-73.582;2023-08-30T05:21:45;3.37;;;3.07;;
20004;SDS011;69160;45.498;-73.582;2023-08-30T05:24:11;3.03;;;2.70;;
20004;SDS011;69160;45.498;-73.582;2023-08-30T05:26:37;3.00;;;2.80;;
20004;SDS011;69160;45.498;-73.582;2023-08-30T05:29:04;3.10;;;2.70;;
20004;SDS011;69160;45.498;-73.582;2023-08-30T05:31:30;4.20;;;3.00;;
20004;SDS011;69160;45.498;-73.582;2023-08-30T05:33:56;2.70;;;2.50;;
20004;SDS011;69160;45.498;-73.582;2023-08-30T05:36:22;3.60;;;3.03;;
20004;SDS011;69160;45.498;-73.582;2023-08-30T05:38:48;2.60;;;2.40;;
20004;SDS011;69160;45.498;-73.582;2023-08-30T05:41:15;4.00;;;2.80;;
20004;SDS011;69160;45.498;-73.582;2023-08-30T05:43:41;3.43;;;3.13;;
20004;SDS011;69160;45.498;-73.582;2023-08-30T05:46:08;3.37;;;3.07;;
20004;SDS011;69160;45.498;-73.582;2023-08-30T05:48:39;4.23;;;2.80;;
20004;SDS011;69160;45.498;-73.582;2023-08-30T05:51:05;3.20;;;2.90;;
20004;SDS011;69160;45.498;-73.582;2023-08-30T05:53:32;3.10;;;2.77;;
20004;SDS011;69160;45.498;-73.582;2023-08-30T05:55:58;3.47;;;3.10;;
20004;SDS011;69160;45.498;-73.582;2023-08-30T05:58:24;4.83;;;2.80;;
20004;SDS011;69160;45.498;-73.582;2023-08-30T06:00:50;2.93;;;2.70;;
20004;SDS011;69160;45.498;-73.582;2023-08-30T06:03:16;2.90;;;2.60;;
20004;SDS011;69160;45.498;-73.582;2023-08-30T06:05:42;2.80;;;2.60;;
20004;SDS011;69160;45.498;-73.582;2023-08-30T06:08:09;2.93;;;2.63;;
20004;SDS011;69160;45.498;-73.582;2023-08-30T06:10:40;3.13;;;2.70;;
20004;SDS011;69160;45.498;-73.582;2023-08-30T06:13:06;3.63;;;3.20;;
20004;SDS011;69160;45.498;-73.582;2023-08-30T06:15:32;2.60;;;2.40;;
20004;SDS011;69160;45.498;-73.582;2023-08-30T06:18:00;3.10;;;2.80;;
20004;SDS011;69160;45.498;-73.582;2023-08-30T06:20:28;3.30;;;3.00;;
20004;SDS011;69160;45.498;-73.582;2023-08-30T06:22:54;3.00;;;2.63;;
20004;SDS011;69160;45.498;-73.582;2023-08-30T06:25:23;3.23;;;2.93;;
20004;SDS011;69160;45.498;-73.582;2023-08-30T06:27:55;3.70;;;3.10;;
20004;SDS011;69160;45.498;-73.582;2023-08-30T06:30:24;2.83;;;2.60;;
20004;SDS011;69160;45.498;-73.582;2023-08-30T06:32:51;3.67;;;3.37;;
20004;SDS011;69160;45.498;-73.582;2023-08-30T06:35:17;3.60;;;2.97;;
20004;SDS011;69160;45.498;-73.582;2023-08-30T06:37:43;2.97;;;2.50;;
20004;SDS011;69160;45.498;-73.582;2023-08-30T06:40:09;3.10;;;2.80;;
20004;SDS011;69160;45.498;-73.582;2023-08-30T06:42:36;3.43;;;3.13;;
20004;SDS011;69160;45.498;-73.582;2023-08-30T06:45:03;3.60;;;3.30;;
20004;SDS011;69160;45.498;-73.582;2023-08-30T06:47:30;3.00;;;2.80;;
20004;SDS011;69160;45.498;-73.582;2023-08-30T06:49:56;3.10;;;2.80;;
20004;SDS011;69160;45.498;-73.582;2023-08-30T06:52:22;3.00;;;2.80;;
20004;SDS011;69160;45.498;-73.582;2023-08-30T06:54:49;2.90;;;2.70;;
20004;SDS011;69160;45.498;-73.582;2023-08-30T06:57:15;3.40;;;3.10;;
20004;SDS011;69160;45.498;-73.582;2023-08-30T06:59:41;3.53;;;3.00;;
20004;SDS011;69160;45.498;-73.582;2023-08-30T07:02:07;3.30;;;2.97;;
20004;SDS011;69160;45.498;-73.582;2023-08-30T07:04:34;3.10;;;2.80;;
20004;SDS011;69160;45.498;-73.582;2023-08-30T07:07:00;3.97;;;3.10;;
20004;SDS011;69160;45.498;-73.582;2023-08-30T07:09:27;5.17;;;3.40;;
20004;SDS011;69160;45.498;-73.582;2023-08-30T07:11:57;2.90;;;2.70;;
20004;SDS011;69160;45.498;-73.582;2023-08-30T07:14:23;3.53;;;2.97;;
20004;SDS011;69160;45.498;-73.582;2023-08-30T07:16:51;3.50;;;3.20;;
20004;SDS011;69160;45.498;-73.582;2023-08-30T07:19:17;3.73;;;3.30;;
20004;SDS011;69160;45.498;-73.582;2023-08-30T07:21:43;4.20;;;3.20;;
20004;SDS011;69160;45.498;-73.582;2023-08-30T07:24:09;3.10;;;2.80;;
20004;SDS011;69160;45.498;-73.582;2023-08-30T07:26:37;3.00;;;2.70;;
20004;SDS011;69160;45.498;-73.582;2023-08-30T07:29:03;3.17;;;2.87;;
20004;SDS011;69160;45.498;-73.582;2023-08-30T07:31:32;3.43;;;3.13;;
20004;SDS011;69160;45.498;-73.582;2023-08-30T07:33:59;3.67;;;3.03;;
20004;SDS011;69160;45.498;-73.582;2023-08-30T07:36:26;3.73;;;3.20;;
20004;SDS011;69160;45.498;-73.582;2023-08-30T07:38:53;3.30;;;3.00;;
20004;SDS011;69160;45.498;-73.582;2023-08-30T07:41:20;3.20;;;2.90;;
20004;SDS011;69160;45.498;-73.582;2023-08-30T07:43:46;3.67;;;3.37;;
20004;SDS011;69160;45.498;-73.582;2023-08-30T07:46:12;4.20;;;3.30;;
20004;SDS011;69160;45.498;-73.582;2023-08-30T07:48:38;7.70;;;3.20;;
20004;SDS011;69160;45.498;-73.582;2023-08-30T07:51:04;3.20;;;2.90;;
20004;SDS011;69160;45.498;-73.582;2023-08-30T07:53:30;3.80;;;3.33;;
20004;SDS011;69160;45.498;-73.582;2023-08-30T07:55:57;3.47;;;3.17;;
20004;SDS011;69160;45.498;-73.582;2023-08-30T07:58:23;4.57;;;3.43;;
20004;SDS011;69160;45.498;-73.582;2023-08-30T08:00:52;4.10;;;3.40;;
20004;SDS011;69160;45.498;-73.582;2023-08-30T08:03:19;3.60;;;3.20;;
20004;SDS011;69160;45.498;-73.582;2023-08-30T08:05:48;3.37;;;3.07;;
20004;SDS011;69160;45.498;-73.582;2023-08-30T08:08:14;3.30;;;3.00;;
20004;SDS011;69160;45.498;-73.582;2023-08-30T08:10:44;3.70;;;3.40;;
20004;SDS011;69160;45.498;-73.582;2023-08-30T08:13:10;4.30;;;3.03;;
20004;SDS011;69160;45.498;-73.582;2023-08-30T08:15:38;3.30;;;3.00;;
20004;SDS011;69160;45.498;-73.582;2023-08-30T08:18:04;3.67;;;3.37;;
20004;SDS011;69160;45.498;-73.582;2023-08-30T08:20:32;3.30;;;3.00;;
20004;SDS011;69160;45.498;-73.582;2023-08-30T08:22:58;3.83;;;3.07;;
20004;SDS011;69160;45.498;-73.582;2023-08-30T08:25:24;3.50;;;3.20;;
20004;SDS011;69160;45.498;-73.582;2023-08-30T08:27:50;4.23;;;3.60;;
20004;SDS011;69160;45.498;-73.582;2023-08-30T08:30:16;3.50;;;3.20;;
20004;SDS011;69160;45.498;-73.582;2023-08-30T08:32:45;3.83;;;3.47;;
20004;SDS011;69160;45.498;-73.582;2023-08-30T08:35:13;3.57;;;3.10;;
20004;SDS011;69160;45.498;-73.582;2023-08-30T08:37:39;3.70;;;3.30;;
20004;SDS011;69160;45.498;-73.582;2023-08-30T08:40:05;3.60;;;3.10;;
20004;SDS011;69160;45.498;-73.582;2023-08-30T08:42:36;3.27;;;2.97;;
20004;SDS011;69160;45.498;-73.582;2023-08-30T08:45:03;5.03;;;3.20;;
20004;SDS011;69160;45.498;-73.582;2023-08-30T08:47:30;5.07;;;3.50;;
20004;SDS011;69160;45.498;-73.582;2023-08-30T08:49:57;3.27;;;2.90;;
20004;SDS011;69160;45.498;-73.582;2023-08-30T08:52:25;3.70;;;3.30;;
20004;SDS011;69160;45.498;-73.582;2023-08-30T08:54:51;4.47;;;3.40;;
20004;SDS011;69160;45.498;-73.582;2023-08-30T08:57:18;4.50;;;3.97;;
20004;SDS011;69160;45.498;-73.582;2023-08-30T08:59:44;3.27;;;2.97;;
20004;SDS011;69160;45.498;-73.582;2023-08-30T09:02:14;4.33;;;3.83;;
20004;SDS011;69160;45.498;-73.582;2023-08-30T09:04:40;3.63;;;3.30;;
20004;SDS011;69160;45.498;-73.582;2023-08-30T09:07:08;3.40;;;3.10;;
20004;SDS011;69160;45.498;-73.582;2023-08-30T09:09:34;3.70;;;3.27;;
20004;SDS011;69160;45.498;-73.582;2023-08-30T09:12:00;3.40;;;3.10;;
20004;SDS011;69160;45.498;-73.582;2023-08-30T09:14:26;3.60;;;3.30;;
20004;SDS011;69160;45.498;-73.582;2023-08-30T09:19:28;3.77;;;3.33;;
20004;SDS011;69160;45.498;-73.582;2023-08-30T09:21:55;3.63;;;3.33;;
20004;SDS011;69160;45.498;-73.582;2023-08-30T09:24:23;5.43;;;3.70;;
20004;SDS011;69160;45.498;-73.582;2023-08-30T09:26:51;3.83;;;3.47;;
20004;SDS011;69160;45.498;-73.582;2023-08-30T09:29:20;4.23;;;3.50;;
20004;SDS011;69160;45.498;-73.582;2023-08-30T09:31:51;4.17;;;3.77;;
20004;SDS011;69160;45.498;-73.582;2023-08-30T09:34:21;3.87;;;3.50;;
20004;SDS011;69160;45.498;-73.582;2023-08-30T09:36:51;4.00;;;3.40;;
20004;SDS011;69160;45.498;-73.582;2023-08-30T09:39:18;4.77;;;4.20;;
20004;SDS011;69160;45.498;-73.582;2023-08-30T09:41:45;3.60;;;3.30;;
20004;SDS011;69160;45.498;-73.582;2023-08-30T09:44:13;3.60;;;3.30;;
20004;SDS011;69160;45.498;-73.582;2023-08-30T09:46:43;4.93;;;3.50;;
20004;SDS011;69160;45.498;-73.582;2023-08-30T09:49:12;3.83;;;3.43;;
20004;SDS011;69160;45.498;-73.582;2023-08-30T09:51:41;4.63;;;3.80;;
20004;SDS011;69160;45.498;-73.582;2023-08-30T09:54:14;4.60;;;3.27;;
20004;SDS011;69160;45.498;-73.582;2023-08-30T09:56:45;4.60;;;3.57;;
20004;SDS011;69160;45.498;-73.582;2023-08-30T09:59:12;3.90;;;3.50;;
20004;SDS011;69160;45.498;-73.582;2023-08-30T10:01:46;3.67;;;3.13;;
20004;SDS011;69160;45.498;-73.582;2023-08-30T10:04:18;3.40;;;3.10;;
20004;SDS011;69160;45.498;-73.582;2023-08-30T10:06:46;4.17;;;3.77;;
20004;SDS011;69160;45.498;-73.582;2023-08-30T10:09:13;3.87;;;3.47;;
20004;SDS011;69160;45.498;-73.582;2023-08-30T10:11:40;3.83;;;3.53;;
20004;SDS011;69160;45.498;-73.582;2023-08-30T10:14:10;3.90;;;3.50;;
20004;SDS011;69160;45.498;-73.582;2023-08-30T10:16:48;3.47;;;3.13;;
20004;SDS011;69160;45.498;-73.582;2023-08-30T10:19:17;3.37;;;3.07;;
20004;SDS011;69160;45.498;-73.582;2023-08-30T10:24:28;3.77;;;3.37;;
20004;SDS011;69160;45.498;-73.582;2023-08-30T10:27:01;3.47;;;3.17;;
20004;SDS011;69160;45.498;-73.582;2023-08-30T10:29:31;4.40;;;3.33;;
20004;SDS011;69160;45.498;-73.582;2023-08-30T10:32:04;4.33;;;3.80;;
20004;SDS011;69160;45.498;-73.582;2023-08-30T10:34:34;4.00;;;3.70;;
20004;SDS011;69160;45.498;-73.582;2023-08-30T10:37:08;4.30;;;3.23;;
20004;SDS011;69160;45.498;-73.582;2023-08-30T10:39:36;3.97;;;3.07;;
20004;SDS011;69160;45.498;-73.582;2023-08-30T10:42:09;4.50;;;3.03;;
20004;SDS011;69160;45.498;-73.582;2023-08-30T10:44:49;3.53;;;3.23;;
20004;SDS011;69160;45.498;-73.582;2023-08-30T10:47:19;3.73;;;3.00;;
20004;SDS011;69160;45.498;-73.582;2023-08-30T10:49:49;3.60;;;3.27;;
20004;SDS011;69160;45.498;-73.582;2023-08-30T10:52:15;3.67;;;3.07;;
20004;SDS011;69160;45.498;-73.582;2023-08-30T10:54:41;3.20;;;2.90;;
20004;SDS011;69160;45.498;-73.582;2023-08-30T10:57:14;3.20;;;2.83;;
20004;SDS011;69160;45.498;-73.582;2023-08-30T11:02:43;4.30;;;3.20;;
20004;SDS011;69160;45.498;-73.582;2023-08-30T11:05:17;3.00;;;2.70;;
20004;SDS011;69160;45.498;-73.582;2023-08-30T11:07:46;2.97;;;2.67;;
20004;SDS011;69160;45.498;-73.582;2023-08-30T11:10:14;3.33;;;2.90;;
20004;SDS011;69160;45.498;-73.582;2023-08-30T11:12:40;3.17;;;2.70;;
20004;SDS011;69160;45.498;-73.582;2023-08-30T11:15:07;2.97;;;2.67;;
20004;SDS011;69160;45.498;-73.582;2023-08-30T11:17:34;3.20;;;2.70;;
20004;SDS011;69160;45.498;-73.582;2023-08-30T11:20:07;2.83;;;2.03;;
20004;SDS011;69160;45.498;-73.582;2023-08-30T11:22:45;3.20;;;2.70;;
20004;SDS011;69160;45.498;-73.582;2023-08-30T11:25:13;3.53;;;2.67;;
20004;SDS011;69160;45.498;-73.582;2023-08-30T11:27:40;2.37;;;2.10;;
20004;SDS011;69160;45.498;-73.582;2023-08-30T11:30:07;2.70;;;2.23;;
20004;SDS011;69160;45.498;-73.582;2023-08-30T11:32:36;2.60;;;2.40;;
20004;SDS011;69160;45.498;-73.582;2023-08-30T11:35:03;2.80;;;2.60;;
20004;SDS011;69160;45.498;-73.582;2023-08-30T11:37:30;2.67;;;2.00;;
20004;SDS011;69160;45.498;-73.582;2023-08-30T11:39:57;3.00;;;2.70;;
20004;SDS011;69160;45.498;-73.582;2023-08-30T11:42:25;2.53;;;2.30;;
20004;SDS011;69160;45.498;-73.582;2023-08-30T11:44:51;2.50;;;2.20;;
20004;SDS011;69160;45.498;-73.582;2023-08-30T11:47:27;2.20;;;2.00;;
20004;SDS011;69160;45.498;-73.582;2023-08-30T11:49:54;2.70;;;2.07;;
20004;SDS011;69160;45.498;-73.582;2023-08-30T11:52:25;3.00;;;2.13;;
20004;SDS011;69160;45.498;-73.582;2023-08-30T11:54:52;2.33;;;2.13;;
20004;SDS011;69160;45.498;-73.582;2023-08-30T11:57:19;2.93;;;2.37;;
20004;SDS011;69160;45.498;-73.582;2023-08-30T11:59:46;2.80;;;2.10;;
20004;SDS011;69160;45.498;-73.582;2023-08-30T12:02:13;3.00;;;2.43;;
20004;SDS011;69160;45.498;-73.582;2023-08-30T12:04:46;2.47;;;2.00;;
20004;SDS011;69160;45.498;-73.582;2023-08-30T12:07:22;2.13;;;1.90;;
20004;SDS011;69160;45.498;-73.582;2023-08-30T12:09:49;3.13;;;2.23;;
20004;SDS011;69160;45.498;-73.582;2023-08-30T12:12:15;2.10;;;1.90;;
20004;SDS011;69160;45.498;-73.582;2023-08-30T12:14:41;4.00;;;2.20;;
20004;SDS011;69160;45.498;-73.582;2023-08-30T12:17:08;2.10;;;1.90;;
20004;SDS011;69160;45.498;-73.582;2023-08-30T12:19:37;3.00;;;2.33;;
20004;SDS011;69160;45.498;-73.582;2023-08-30T12:22:05;2.30;;;2.00;;
20004;SDS011;69160;45.498;-73.582;2023-08-30T12:24:41;2.33;;;1.83;;
20004;SDS011;69160;45.498;-73.582;2023-08-30T12:27:11;2.23;;;1.77;;
20004;SDS011;69160;45.498;-73.582;2023-08-30T12:29:38;1.97;;;1.77;;
20004;SDS011;69160;45.498;-73.582;2023-08-30T12:32:05;2.97;;;1.83;;
20004;SDS011;69160;45.498;-73.582;2023-08-30T12:34:32;2.40;;;1.90;;
20004;SDS011;69160;45.498;-73.582;2023-08-30T12:36:59;1.77;;;1.67;;
20004;SDS011;69160;45.498;-73.582;2023-08-30T12:39:27;3.07;;;1.80;;
20004;SDS011;69160;45.498;-73.582;2023-08-30T12:41:54;2.33;;;1.97;;
20004;SDS011;69160;45.498;-73.582;2023-08-30T12:44:21;2.17;;;1.87;;
20004;SDS011;69160;45.498;-73.582;2023-08-30T12:46:47;3.43;;;2.10;;
20004;SDS011;69160;45.498;-73.582;2023-08-30T12:49:13;3.27;;;1.80;;
20004;SDS011;69160;45.498;-73.582;2023-08-30T12:51:39;2.50;;;1.80;;
20004;SDS011;69160;45.498;-73.582;2023-08-30T12:54:05;2.20;;;2.00;;
20004;SDS011;69160;45.498;-73.582;2023-08-30T12:56:31;2.20;;;2.00;;
20004;SDS011;69160;45.498;-73.582;2023-08-30T12:58:57;1.70;;;1.50;;
20004;SDS011;69160;45.498;-73.582;2023-08-30T13:01:23;1.60;;;1.47;;
20004;SDS011;69160;45.498;-73.582;2023-08-30T13:03:50;3.40;;;1.83;;
20004;SDS011;69160;45.498;-73.582;2023-08-30T13:06:16;2.03;;;1.70;;
20004;SDS011;69160;45.498;-73.582;2023-08-30T13:08:42;2.60;;;1.80;;
20004;SDS011;69160;45.498;-73.582;2023-08-30T13:11:08;2.33;;;1.50;;
20004;SDS011;69160;45.498;-73.582;2023-08-30T13:13:34;2.90;;;1.90;;
20004;SDS011;69160;45.498;-73.582;2023-08-30T13:16:00;2.00;;;1.70;;
20004;SDS011;69160;45.498;-73.582;2023-08-30T13:18:26;1.80;;;1.70;;
20004;SDS011;69160;45.498;-73.582;2023-08-30T13:20:56;4.60;;;1.90;;
20004;SDS011;69160;45.498;-73.582;2023-08-30T13:23:22;1.70;;;1.50;;
20004;SDS011;69160;45.498;-73.582;2023-08-30T13:25:48;2.57;;;1.70;;
20004;SDS011;69160;45.498;-73.582;2023-08-30T13:28:14;1.47;;;1.30;;
20004;SDS011;69160;45.498;-73.582;2023-08-30T13:30:44;1.80;;;1.57;;
20004;SDS011;69160;45.498;-73.582;2023-08-30T13:33:12;3.00;;;1.50;;
20004;SDS011;69160;45.498;-73.582;2023-08-30T13:35:40;2.13;;;1.53;;
20004;SDS011;69160;45.498;-73.582;2023-08-30T13:38:07;2.53;;;1.40;;
20004;SDS011;69160;45.498;-73.582;2023-08-30T13:40:33;1.53;;;1.43;;
20004;SDS011;69160;45.498;-73.582;2023-08-30T13:42:59;2.60;;;2.10;;
20004;SDS011;69160;45.498;-73.582;2023-08-30T13:45:28;3.20;;;1.90;;
20004;SDS011;69160;45.498;-73.582;2023-08-30T13:47:54;3.10;;;1.27;;
20004;SDS011;69160;45.498;-73.582;2023-08-30T13:50:20;1.87;;;1.43;;
20004;SDS011;69160;45.498;-73.582;2023-08-30T13:52:46;2.10;;;1.50;;
20004;SDS011;69160;45.498;-73.582;2023-08-30T13:55:12;1.50;;;1.27;;
20004;SDS011;69160;45.498;-73.582;2023-08-30T13:57:39;1.50;;;1.40;;
20004;SDS011;69160;45.498;-73.582;2023-08-30T14:00:05;1.40;;;1.20;;
20004;SDS011;69160;45.498;-73.582;2023-08-30T14:02:35;2.13;;;1.37;;
20004;SDS011;69160;45.498;-73.582;2023-08-30T14:05:01;1.53;;;1.10;;
20004;SDS011;69160;45.498;-73.582;2023-08-30T14:07:28;1.50;;;1.40;;
20004;SDS011;69160;45.498;-73.582;2023-08-30T14:09:54;3.10;;;1.60;;
20004;SDS011;69160;45.498;-73.582;2023-08-30T14:12:20;1.20;;;1.10;;
20004;SDS011;69160;45.498;-73.582;2023-08-30T14:14:46;1.10;;;1.00;;
20004;SDS011;69160;45.498;-73.582;2023-08-30T14:17:12;1.60;;;1.50;;
20004;SDS011;69160;45.498;-73.582;2023-08-30T14:19:38;1.97;;;1.30;;
20004;SDS011;69160;45.498;-73.582;2023-08-30T14:22:06;4.10;;;1.47;;
20004;SDS011;69160;45.498;-73.582;2023-08-30T14:24:32;1.50;;;1.40;;
20004;SDS011;69160;45.498;-73.582;2023-08-30T14:27:00;1.40;;;1.13;;
20004;SDS011;69160;45.498;-73.582;2023-08-30T14:29:26;1.40;;;1.30;;
20004;SDS011;69160;45.498;-73.582;2023-08-30T14:31:52;1.30;;;1.13;;
20004;SDS011;69160;45.498;-73.582;2023-08-30T14:34:19;2.70;;;1.37;;